Aviation Digital Data Service (ADDS)

Output produced by METARs form (1739 UTC 21 September 2017)
found at http://www.aviationweather.gov/adds/metars/
 
KBID 211656Z AUTO 02015G29KT 10SM FEW100 21/15 A2992 RMK AO2 PK WND 02029/1651 SLP135 T02110150
KUUU 211653Z AUTO 01023G32KT 10SM CLR 21/14 A2993 RMK AO2 PK WND 02033/1624 SLP135 T02110144
KOQU 211653Z 04023G33KT 10SM FEW050 SCT100 BKN250 21/13 A2995
KSFZ 211656Z AUTO 03020G24KT 10SM CLR 20/13 A3001 RMK AO2 PK WND 03027/1603 SLP108 T02000133
KPVD 211651Z 02024G31KT 10SM FEW030 FEW050 BKN300 22/13 A2998 RMK AO2 PK WND 36034/1556 SLP151 T02170133
KPVD 211522Z 2115/2212 01019G35KT P6SM SCT025 BKN035 
     FM220000 02018G32KT P6SM SCT040 
     FM220900 01017G33KT P6SM BKN040
       
KWST 211653Z AUTO 35014G26KT 10SM FEW120 22/16 A2995 RMK AO2 PK WND 36028/1613 SLP141 T02220156